Time;durP1;ratioP1;P1;durP2;ratioP2;P2;SDS_P1;SDS_P2;PMS_P1;PMS_P2;Temp;Humidity;BMP_temperature;BMP_pressure;BME280_temperature;BME280_humidity;BME280_pressure;Samples;Min_cycle;Max_cycle;Signal;HPM_P1;HPM_P2
2023/09/22 00:00:05;;;;;;;6.07;3.10;;;17.50;99.90;;;;;;1930231;73;25350;-90
2023/09/22 00:02:54;;;;;;;5.40;3.03;;;17.50;99.90;;;;;;1935350;73;25263;-90
2023/09/22 00:36:52;;;;;;;6.27;3.00;;;17.40;99.90;;;;;;1896864;75;27418;-90
2023/09/22 00:42:31;;;;;;;4.97;2.70;;;17.50;99.90;;;;;;1938586;72;26918;-89
2023/09/22 00:45:21;;;;;;;4.60;2.80;;;17.50;99.90;;;;;;1914449;74;25230;-92
2023/09/22 01:32:52;;;;;;;9.63;3.30;;;17.50;99.90;;;;;;1961479;72;27108;-90
2023/09/22 02:09:20;;;;;;;5.73;3.63;;;17.20;99.90;;;;;;1910946;73;27696;-90
2023/09/22 02:26:38;;;;;;;11.17;4.27;;;17.00;99.90;;;;;;1919965;71;26311;-90
2023/09/22 03:08:44;;;;;;;8.77;4.40;;;17.20;99.90;;;;;;1930320;73;26382;-89
2023/09/22 03:14:26;;;;;;;7.67;4.27;;;17.30;99.90;;;;;;1952865;72;26913;-90
2023/09/22 03:17:16;;;;;;;13.60;4.70;;;17.30;99.90;;;;;;1916343;73;25261;-90
2023/09/22 03:20:12;;;;;;;6.27;4.20;;;17.20;99.90;;;;;;1908464;75;25261;-90
2023/09/22 03:22:58;;;;;;;8.63;4.30;;;17.30;99.90;;;;;;1931787;73;25212;-90
2023/09/22 03:25:48;;;;;;;6.70;4.27;;;17.30;99.90;;;;;;1892583;75;25206;-91
2023/09/22 03:28:37;;;;;;;15.57;4.50;;;17.30;99.90;;;;;;1907452;74;25178;-91
2023/09/22 03:44:43;;;;;;;7.87;4.13;;;17.30;99.90;;;;;;1972152;72;27624;-90
2023/09/22 04:36:10;;;;;;;9.43;4.87;;;17.00;99.90;;;;;;1998353;71;26602;-90
2023/09/22 04:41:57;;;;;;;8.90;4.80;;;17.00;99.90;;;;;;1939182;72;27064;-90
2023/09/22 04:44:46;;;;;;;11.27;5.13;;;17.00;99.90;;;;;;1911990;75;25235;-90
2023/09/22 04:47:37;;;;;;;9.20;4.60;;;17.00;99.90;;;;;;1869120;76;25288;-90
2023/09/22 04:53:41;;;;;;;13.63;4.97;;;16.90;99.90;;;;;;1929997;72;27071;-90
2023/09/22 04:56:36;;;;;;;10.07;5.00;;;17.00;99.90;;;;;;1875365;76;25253;-90
2023/09/22 04:59:25;;;;;;;9.17;4.90;;;17.00;99.90;;;;;;1842128;76;25181;-90
2023/09/22 05:02:31;;;;;;;9.50;5.57;;;17.00;99.90;;;;;;1867678;76;25721;-90
2023/09/22 05:05:19;;;;;;;11.43;5.23;;;17.00;99.90;;;;;;1861471;75;25227;-90
2023/09/22 05:08:08;;;;;;;15.63;5.10;;;16.90;99.90;;;;;;1871753;76;25245;-90
2023/09/22 05:11:01;;;;;;;9.03;5.60;;;16.90;99.90;;;;;;1834741;77;25292;-91
2023/09/22 05:13:50;;;;;;;9.40;5.50;;;16.90;99.90;;;;;;1871652;76;25277;-90
2023/09/22 05:16:40;;;;;;;14.43;5.27;;;16.90;99.90;;;;;;1870022;76;25383;-91
2023/09/22 05:19:30;;;;;;;7.40;4.63;;;17.00;99.90;;;;;;1863052;76;25249;-91
2023/09/22 05:52:30;;;;;;;10.07;5.43;;;17.10;99.90;;;;;;1916773;74;26391;-91
2023/09/22 05:58:19;;;;;;;8.43;5.00;;;16.90;99.90;;;;;;1944712;72;27087;-90
2023/09/22 06:06:08;;;;;;;9.47;5.27;;;16.90;99.90;;;;;;1987459;71;26896;-90
2023/09/22 06:08:59;;;;;;;8.33;5.10;;;16.90;99.90;;;;;;2005467;70;25224;-90
2023/09/22 06:11:49;;;;;;;9.37;4.80;;;16.90;99.90;;;;;;2025700;70;25274;-90
2023/09/22 06:14:39;;;;;;;10.23;5.40;;;17.00;99.90;;;;;;2019006;70;25216;-90
2023/09/22 06:17:28;;;;;;;9.23;5.33;;;16.90;99.90;;;;;;2026985;70;25656;-90
2023/09/22 06:20:17;;;;;;;11.73;5.27;;;16.90;99.90;;;;;;2023051;70;25671;-90
2023/09/22 06:23:06;;;;;;;10.30;5.57;;;16.90;99.90;;;;;;2010570;70;25250;-91
2023/09/22 06:29:00;;;;;;;8.50;4.93;;;17.00;99.90;;;;;;1955292;72;27117;-90
2023/09/22 06:31:49;;;;;;;9.97;5.60;;;17.10;99.90;;;;;;1932209;73;26478;-90
2023/09/22 06:34:40;;;;;;;10.80;5.80;;;17.10;99.90;;;;;;1916615;73;25310;-91
2023/09/22 06:37:29;;;;;;;10.60;5.37;;;17.10;99.90;;;;;;1916765;73;25227;-90
2023/09/22 06:57:50;;;;;;;7.13;5.07;;;17.10;99.90;;;;;;1981692;69;27131;-90
2023/09/22 07:03:26;;;;;;;12.23;5.70;;;17.40;99.90;;;;;;1955999;72;27561;-90
2023/09/22 07:06:16;;;;;;;14.30;5.53;;;17.40;99.90;;;;;;1954550;73;25628;-90
2023/09/22 07:09:09;;;;;;;11.17;4.47;;;17.60;99.90;;;;;;1960785;73;25256;-90
2023/09/22 07:11:57;;;;;;;7.80;5.00;;;17.60;99.90;;;;;;1954387;72;25723;-90
2023/09/22 07:14:47;;;;;;;10.57;4.93;;;17.60;99.90;;;;;;1917158;73;25282;-90
2023/09/22 07:17:39;;;;;;;9.70;4.93;;;17.70;99.90;;;;;;1946605;73;25136;-91
2023/09/22 07:20:28;;;;;;;8.63;5.23;;;17.80;99.90;;;;;;1938615;73;25945;-90
2023/09/22 07:23:16;;;;;;;11.17;5.23;;;17.80;99.90;;;;;;1960958;73;25211;-91
2023/09/22 07:29:01;;;;;;;8.83;4.47;;;17.90;99.90;;;;;;1948715;72;27064;-91
2023/09/22 07:31:50;;;;;;;12.23;5.57;;;18.00;99.90;;;;;;1928790;73;25210;-90
2023/09/22 07:37:31;;;;;;;6.33;4.47;;;18.40;99.90;;;;;;1949574;72;26932;-90
2023/09/22 07:40:20;;;;;;;9.60;4.53;;;18.60;99.90;;;;;;1946460;73;25790;-91
2023/09/22 07:43:09;;;;;;;8.90;4.93;;;18.50;99.90;;;;;;1935061;73;25253;-91
2023/09/22 07:48:51;;;;;;;11.80;5.20;;;18.40;99.90;;;;;;1963540;72;26938;-90
2023/09/22 07:51:41;;;;;;;11.57;4.87;;;18.40;99.90;;;;;;1872002;76;25181;-90
2023/09/22 07:54:31;;;;;;;8.27;4.67;;;18.30;99.90;;;;;;1870266;76;25665;-90
2023/09/22 07:57:20;;;;;;;11.97;5.00;;;18.30;99.90;;;;;;1894603;75;25351;-90
2023/09/22 08:37:27;;;;;;;12.07;5.07;;;18.30;99.90;;;;;;1938144;73;27701;-90
2023/09/22 08:57:27;;;;;;;9.90;5.30;;;18.60;99.90;;;;;;1917594;73;27447;-89
2023/09/22 09:04:40;;;;;;;8.10;5.13;;;18.30;99.90;;;;;;1988752;71;26995;-90
2023/09/22 09:07:28;;;;;;;13.90;5.00;;;18.10;99.90;;;;;;1961838;72;25705;-90
2023/09/22 09:10:36;;;;;;;9.77;4.67;;;18.00;99.90;;;;;;2053366;69;26563;-90
2023/09/22 09:26:43;;;;;;;10.20;5.47;;;18.00;99.90;;;;;;1888730;75;27005;-90
2023/09/22 10:59:33;;;;;;;22.50;9.83;;;16.80;99.90;;;;;;1885933;75;25255;-92
2023/09/22 13:03:29;;;;;;;16.83;9.13;;;17.50;99.90;;;;;;1896973;74;25167;-93
2023/09/22 13:10:07;;;;;;;15.47;8.90;;;17.30;99.90;;;;;;1965762;72;31665;-92
2023/09/22 13:13:52;;;;;;;17.27;9.20;;;17.30;99.90;;;;;;1940880;73;25773;-92
2023/09/22 14:04:57;;;;;;;10.70;6.63;;;17.30;99.90;;;;;;1893070;74;26994;-92
2023/09/22 14:10:32;;;;;;;8.57;5.93;;;17.70;99.90;;;;;;1959856;72;26933;-89
2023/09/22 14:16:04;;;;;;;7.87;6.03;;;17.70;99.90;;;;;;1937378;72;27130;-88
2023/09/22 14:18:53;;;;;;;8.00;5.47;;;17.80;99.90;;;;;;1899658;75;25229;-88
2023/09/22 14:21:42;;;;;;;8.40;5.13;;;17.80;99.90;;;;;;1881910;75;25202;-88
2023/09/22 14:24:31;;;;;;;8.33;5.13;;;17.80;99.90;;;;;;1891478;75;25247;-88
2023/09/22 14:27:20;;;;;;;6.03;3.90;;;17.70;99.90;;;;;;1877683;75;25543;-88
2023/09/22 14:30:12;;;;;;;4.60;3.80;;;17.60;99.90;;;;;;1889399;75;25735;-88
2023/09/22 14:33:00;;;;;;;8.23;3.37;;;17.50;99.90;;;;;;1883661;74;25336;-88
2023/09/22 14:35:48;;;;;;;3.20;2.70;;;17.50;99.90;;;;;;1884161;75;25252;-88
2023/09/22 14:38:37;;;;;;;4.80;3.27;;;17.40;99.90;;;;;;1903985;75;25171;-88
2023/09/22 14:41:26;;;;;;;4.03;3.27;;;17.40;99.90;;;;;;1889428;74;25263;-88
2023/09/22 14:44:15;;;;;;;3.27;2.93;;;17.40;99.90;;;;;;1889222;74;25203;-88
2023/09/22 14:49:46;;;;;;;8.80;3.10;;;17.30;99.90;;;;;;1946760;72;27048;-88
2023/09/22 14:52:34;;;;;;;3.60;3.00;;;17.30;99.90;;;;;;1936804;72;25223;-88
2023/09/22 14:55:23;;;;;;;4.27;3.30;;;17.20;99.90;;;;;;1934878;72;25863;-89
2023/09/22 14:58:12;;;;;;;3.23;2.97;;;17.10;99.90;;;;;;1931420;73;25570;-88
2023/09/22 15:01:02;;;;;;;3.33;3.03;;;17.10;99.90;;;;;;1926763;73;25211;-88
2023/09/22 15:03:50;;;;;;;4.43;2.87;;;17.10;99.90;;;;;;1929799;73;25275;-88
2023/09/22 15:06:40;;;;;;;2.67;2.47;;;17.10;99.90;;;;;;1935977;73;25260;-88
2023/09/22 15:09:29;;;;;;;3.07;2.40;;;17.10;99.90;;;;;;1904167;73;25364;-88
2023/09/22 15:12:18;;;;;;;4.73;2.40;;;17.10;99.90;;;;;;1884101;75;25296;-89
2023/09/22 15:15:09;;;;;;;1.83;1.73;;;17.10;99.90;;;;;;1865384;76;25238;-89
2023/09/22 15:17:58;;;;;;;1.87;1.73;;;17.10;99.90;;;;;;1856814;76;25298;-88
2023/09/22 15:33:49;;;;;;;1.40;1.30;;;17.10;99.90;;;;;;1824625;76;27125;-88
2023/09/22 15:39:19;;;;;;;2.50;1.20;;;17.00;99.90;;;;;;1933802;72;27136;-88
2023/09/22 15:42:08;;;;;;;4.10;1.60;;;16.90;99.90;;;;;;1916416;73;25374;-89
2023/09/22 15:44:57;;;;;;;1.27;1.17;;;16.90;99.90;;;;;;1913605;74;25287;-90
2023/09/22 15:47:46;;;;;;;1.37;1.30;;;17.00;99.90;;;;;;1904946;75;25751;-89
2023/09/22 15:50:35;;;;;;;1.70;1.20;;;17.00;99.90;;;;;;1899494;75;25234;-89
2023/09/22 15:56:05;;;;;;;2.37;1.40;;;16.90;99.90;;;;;;1966138;70;27605;-87
2023/09/22 15:58:54;;;;;;;2.50;1.40;;;16.80;99.90;;;;;;1896526;75;25603;-87
2023/09/22 16:01:43;;;;;;;1.00;1.00;;;16.50;99.90;;;;;;1907023;73;25702;-87
2023/09/22 16:04:32;;;;;;;1.43;1.33;;;16.20;99.90;;;;;;1909327;74;26570;-88
2023/09/22 16:07:21;;;;;;;2.87;1.40;;;16.10;99.90;;;;;;1907577;75;25665;-88
2023/09/22 16:10:11;;;;;;;3.60;2.20;;;15.90;99.90;;;;;;1911921;75;25331;-88
2023/09/22 16:13:02;;;;;;;9.03;4.27;;;15.90;99.90;;;;;;1901765;74;25205;-87
2023/09/22 16:15:50;;;;;;;12.70;7.47;;;15.80;99.90;;;;;;1903101;75;25671;-89
2023/09/22 16:18:39;;;;;;;4.33;3.07;;;15.70;99.90;;;;;;1900461;75;25252;-89
2023/09/22 16:21:28;;;;;;;3.77;2.43;;;15.70;99.90;;;;;;1897376;75;25197;-89
2023/09/22 16:24:16;;;;;;;4.47;2.73;;;15.60;99.90;;;;;;1900323;73;25754;-89
2023/09/22 16:27:05;;;;;;;5.77;3.33;;;15.60;99.90;;;;;;1914478;75;25265;-87
2023/09/22 16:29:54;;;;;;;3.97;3.20;;;15.40;99.90;;;;;;1906632;73;25309;-87
2023/09/22 16:32:43;;;;;;;4.30;2.40;;;15.40;99.90;;;;;;1913050;73;25608;-87
2023/09/22 16:38:46;;;;;;;2.63;2.27;;;15.30;99.90;;;;;;1984414;71;26385;-87
2023/09/22 16:44:16;;;;;;;2.00;1.90;;;15.20;99.90;;;;;;1930007;72;27047;-88
2023/09/22 16:47:05;;;;;;;2.10;1.80;;;15.20;99.90;;;;;;1906018;75;26779;-88
2023/09/22 16:49:53;;;;;;;3.03;1.47;;;15.20;99.90;;;;;;1890110;75;25242;-87
2023/09/22 16:52:42;;;;;;;1.70;1.60;;;15.10;99.90;;;;;;1893445;75;25253;-87
2023/09/22 16:58:20;;;;;;;1.60;1.50;;;14.90;99.90;;;;;;2026783;69;27035;-87
2023/09/22 17:01:10;;;;;;;1.87;1.70;;;14.80;99.90;;;;;;2010101;70;25251;-87
2023/09/22 17:03:58;;;;;;;2.97;1.70;;;14.80;99.90;;;;;;1998196;71;25207;-87
2023/09/22 17:06:47;;;;;;;1.60;1.50;;;14.70;99.90;;;;;;2006431;70;25254;-87
2023/09/22 17:09:35;;;;;;;1.60;1.50;;;14.60;99.90;;;;;;2003693;70;25253;-87
2023/09/22 17:15:48;;;;;;;1.70;1.60;;;14.50;99.90;;;;;;1987022;71;27709;-87
2023/09/22 17:18:36;;;;;;;1.67;1.57;;;14.50;99.90;;;;;;2007670;69;25174;-87
2023/09/22 17:21:25;;;;;;;3.17;1.40;;;14.40;99.90;;;;;;2016667;69;25175;-87
2023/09/22 17:26:55;;;;;;;1.30;1.20;;;14.30;99.90;;;;;;1930541;72;27646;-87
2023/09/22 17:29:46;;;;;;;1.57;1.47;;;14.30;99.90;;;;;;1902094;75;25334;-86
2023/09/22 17:35:25;;;;;;;1.40;1.30;;;14.30;99.90;;;;;;1981461;71;26968;-87
2023/09/22 17:38:14;;;;;;;1.70;1.20;;;14.30;99.90;;;;;;1934169;72;25753;-88
2023/09/22 17:41:04;;;;;;;3.97;1.07;;;14.20;99.90;;;;;;1924469;73;25242;-87
2023/09/22 17:43:52;;;;;;;2.57;1.30;;;14.20;99.90;;;;;;1916337;75;25358;-87
2023/09/22 17:46:41;;;;;;;1.13;1.10;;;14.20;99.90;;;;;;1899934;73;25218;-88
2023/09/22 17:49:30;;;;;;;1.50;1.20;;;14.20;99.90;;;;;;1913787;75;25845;-88
2023/09/22 17:52:18;;;;;;;5.30;1.20;;;14.10;99.90;;;;;;1909101;75;25230;-88
2023/09/22 17:55:07;;;;;;;1.43;1.20;;;14.00;99.90;;;;;;1897050;73;25620;-88
2023/09/22 17:57:56;;;;;;;2.07;1.10;;;13.90;99.90;;;;;;1902572;75;25566;-88
2023/09/22 18:00:45;;;;;;;5.80;1.33;;;13.90;99.90;;;;;;1912819;75;25265;-88
2023/09/22 18:03:33;;;;;;;1.40;1.30;;;13.90;99.90;;;;;;1906489;73;25292;-88
2023/09/22 18:06:22;;;;;;;1.33;1.00;;;13.80;99.90;;;;;;1912783;75;25230;-87
2023/09/22 18:09:11;;;;;;;3.37;1.20;;;13.80;99.90;;;;;;1908523;75;25292;-88
2023/09/22 18:11:59;;;;;;;4.60;1.10;;;13.80;99.90;;;;;;1898074;73;25239;-88
2023/09/22 18:17:30;;;;;;;1.07;1.07;;;13.70;99.90;;;;;;1895313;74;27708;-87
2023/09/22 18:20:19;;;;;;;2.30;1.17;;;13.70;99.90;;;;;;1832170;77;25295;-87
2023/09/22 18:23:08;;;;;;;4.07;1.20;;;13.70;99.90;;;;;;1836320;77;25250;-87
2023/09/22 18:26:05;;;;;;;1.70;1.30;;;13.70;99.90;;;;;;1842128;77;25649;-87
2023/09/22 18:28:52;;;;;;;1.93;1.10;;;13.70;99.90;;;;;;1830804;76;25388;-87
2023/09/22 18:31:39;;;;;;;1.27;1.10;;;13.70;99.90;;;;;;1829014;77;25324;-87
2023/09/22 18:34:28;;;;;;;2.13;1.13;;;13.70;99.90;;;;;;1836630;77;25218;-87
2023/09/22 18:37:16;;;;;;;1.63;1.20;;;13.60;99.90;;;;;;1841398;76;25340;-87
2023/09/22 18:40:08;;;;;;;3.83;1.20;;;13.60;99.90;;;;;;1844781;77;25234;-87
2023/09/22 18:42:59;;;;;;;1.00;1.00;;;13.60;99.90;;;;;;1792764;79;25759;-87
2023/09/22 18:45:48;;;;;;;1.07;1.07;;;13.60;99.90;;;;;;1799178;77;25808;-87
2023/09/22 18:48:36;;;;;;;1.27;1.10;;;13.60;99.90;;;;;;1800002;78;25208;-87
2023/09/22 18:51:25;;;;;;;1.80;1.20;;;13.50;99.90;;;;;;1809318;79;25284;-87
2023/09/22 18:57:00;;;;;;;1.87;1.40;;;13.50;99.90;;;;;;1936533;72;27003;-87
2023/09/22 18:59:50;;;;;;;4.10;1.20;;;13.50;99.90;;;;;;1887532;75;25655;-87
2023/09/22 19:02:41;;;;;;;1.73;1.10;;;13.50;99.90;;;;;;1886542;75;25265;-87
2023/09/22 19:05:29;;;;;;;1.17;1.17;;;13.50;99.90;;;;;;1878021;75;25293;-88
2023/09/22 19:08:18;;;;;;;1.30;1.20;;;13.40;99.90;;;;;;1890288;75;25166;-88
2023/09/22 19:11:08;;;;;;;2.03;1.40;;;13.40;99.90;;;;;;1902749;75;25280;-88
2023/09/22 19:13:56;;;;;;;2.27;1.20;;;13.30;99.90;;;;;;1890509;75;25243;-88
2023/09/22 19:19:31;;;;;;;1.20;1.10;;;13.30;99.90;;;;;;1944076;72;26684;-87
2023/09/22 19:22:20;;;;;;;2.30;1.40;;;13.30;99.90;;;;;;1918725;73;25236;-87
2023/09/22 19:27:49;;;;;;;1.73;1.37;;;13.30;99.90;;;;;;1932339;72;27053;-87
2023/09/22 19:30:38;;;;;;;2.30;1.20;;;13.30;99.90;;;;;;1890478;74;25182;-87
2023/09/22 19:33:27;;;;;;;1.20;1.10;;;13.30;99.90;;;;;;1854942;76;25667;-87
2023/09/22 19:36:15;;;;;;;2.60;1.17;;;13.30;99.90;;;;;;1844688;76;25701;-87
2023/09/22 19:39:04;;;;;;;3.47;1.30;;;13.20;99.90;;;;;;1909710;75;25273;-87
2023/09/22 19:41:54;;;;;;;1.93;1.30;;;13.20;99.90;;;;;;1854763;75;25228;-88
2023/09/22 19:44:42;;;;;;;1.30;1.20;;;13.20;99.90;;;;;;1814073;78;25283;-87
2023/09/22 19:47:31;;;;;;;3.53;1.53;;;13.20;99.90;;;;;;1852602;76;25232;-88
2023/09/22 19:50:21;;;;;;;1.93;1.20;;;13.30;99.90;;;;;;1890846;74;25369;-87
2023/09/22 19:53:10;;;;;;;2.33;1.60;;;13.30;99.90;;;;;;1841010;76;25279;-87
2023/09/22 19:55:59;;;;;;;2.70;1.43;;;13.20;99.90;;;;;;1877624;75;25228;-87
2023/09/22 19:58:47;;;;;;;1.30;1.20;;;13.20;99.90;;;;;;1880088;75;25225;-87
2023/09/22 20:01:37;;;;;;;1.53;1.30;;;13.20;99.90;;;;;;1838074;76;25248;-87
2023/09/22 20:04:25;;;;;;;1.87;1.30;;;13.10;99.90;;;;;;1793660;78;25747;-88
2023/09/22 20:07:14;;;;;;;3.57;1.43;;;13.10;99.90;;;;;;1833405;76;25335;-87
2023/09/22 20:10:03;;;;;;;3.10;1.50;;;13.10;99.90;;;;;;1882438;74;25220;-87
2023/09/22 20:12:51;;;;;;;4.70;1.37;;;13.10;99.90;;;;;;1855420;76;25575;-87
2023/09/22 20:18:33;;;;;;;3.83;1.60;;;13.10;99.90;;;;;;1961398;72;27007;-87
2023/09/22 20:24:01;;;;;;;5.07;1.40;;;13.00;99.90;;;;;;1934575;72;27031;-87
2023/09/22 20:26:50;;;;;;;5.63;1.40;;;13.10;99.90;;;;;;1897714;73;25288;-87
2023/09/22 20:29:38;;;;;;;1.67;1.30;;;13.00;99.90;;;;;;1855109;76;25846;-87
2023/09/22 20:32:27;;;;;;;3.73;1.50;;;13.10;99.90;;;;;;1848043;76;25300;-87
2023/09/22 20:35:16;;;;;;;6.40;1.60;;;13.10;99.90;;;;;;1873177;76;25221;-87
2023/09/22 20:38:05;;;;;;;4.50;1.80;;;13.00;99.90;;;;;;1824326;76;25252;-87
2023/09/22 20:40:54;;;;;;;4.53;1.83;;;13.00;99.90;;;;;;1829036;76;25354;-87
2023/09/22 20:43:43;;;;;;;6.10;1.77;;;13.00;99.90;;;;;;1809586;77;25220;-87
2023/09/22 20:46:31;;;;;;;5.10;1.70;;;13.00;99.90;;;;;;1831956;76;25258;-87
2023/09/22 20:49:23;;;;;;;4.20;1.63;;;13.00;99.90;;;;;;1818250;79;25247;-87
2023/09/22 20:54:54;;;;;;;10.83;1.80;;;13.00;99.90;;;;;;1937132;72;27054;-86
2023/09/22 20:57:42;;;;;;;8.30;1.93;;;13.10;99.90;;;;;;1868142;76;25296;-86
2023/09/22 21:00:30;;;;;;;8.77;2.10;;;13.10;99.90;;;;;;1837718;77;26627;-88
2023/09/22 21:03:20;;;;;;;6.27;1.70;;;13.10;99.90;;;;;;1910587;74;26574;-88
2023/09/22 21:08:58;;;;;;;3.50;1.67;;;13.10;99.90;;;;;;1954728;72;26928;-87
2023/09/22 21:11:48;;;;;;;6.03;1.57;;;13.10;99.90;;;;;;1943174;72;25229;-87
2023/09/22 21:14:37;;;;;;;6.40;1.50;;;13.10;99.90;;;;;;1936810;72;25205;-87
2023/09/22 21:17:25;;;;;;;4.73;1.70;;;13.10;99.90;;;;;;1899808;74;25225;-87
2023/09/22 21:20:14;;;;;;;6.87;1.73;;;13.10;99.90;;;;;;1893021;75;25227;-87
2023/09/22 21:23:08;;;;;;;2.67;1.53;;;13.10;99.90;;;;;;1902605;74;25235;-87
2023/09/22 21:25:57;;;;;;;5.67;1.60;;;13.20;99.90;;;;;;1902510;75;25371;-88
2023/09/22 21:28:43;;;;;;;4.40;1.60;;;13.20;99.90;;;;;;1903514;74;25749;-88
2023/09/22 21:31:33;;;;;;;7.97;1.77;;;13.20;99.90;;;;;;1910761;74;25160;-88
2023/09/22 21:34:22;;;;;;;6.57;1.80;;;13.20;99.90;;;;;;1896381;75;25290;-87
2023/09/22 21:37:11;;;;;;;5.63;2.03;;;13.10;99.90;;;;;;1896832;74;25334;-87
2023/09/22 21:43:14;;;;;;;7.47;1.83;;;13.10;99.90;;;;;;1972693;71;27072;-87
2023/09/22 21:48:59;;;;;;;5.60;1.63;;;13.10;99.90;;;;;;1952162;72;27038;-86
2023/09/22 21:51:48;;;;;;;13.23;2.00;;;13.10;99.90;;;;;;1932677;73;25246;-89
2023/09/22 21:54:37;;;;;;;7.83;1.90;;;13.10;99.90;;;;;;1937612;72;25250;-88
2023/09/22 21:57:25;;;;;;;12.07;1.97;;;13.10;99.90;;;;;;1929483;72;25292;-88
2023/09/22 22:02:57;;;;;;;6.93;1.80;;;13.00;99.90;;;;;;1940572;72;27006;-87
2023/09/22 22:05:46;;;;;;;12.57;1.87;;;13.10;99.90;;;;;;1856875;76;25641;-87
2023/09/22 22:08:40;;;;;;;4.90;1.50;;;13.10;99.90;;;;;;1842854;76;25239;-87
2023/09/22 22:11:28;;;;;;;13.60;2.10;;;13.10;99.90;;;;;;1904806;74;25275;-88
2023/09/22 22:17:06;;;;;;;5.20;1.83;;;13.00;99.90;;;;;;1946071;72;27042;-86
2023/09/22 22:19:57;;;;;;;3.20;1.43;;;13.00;99.90;;;;;;1920857;73;25168;-88
2023/09/22 22:22:47;;;;;;;6.57;1.80;;;12.90;99.90;;;;;;1919469;73;25264;-88
2023/09/22 22:25:37;;;;;;;3.40;1.67;;;12.90;99.90;;;;;;1924023;73;25234;-88
2023/09/22 22:28:27;;;;;;;6.30;1.67;;;12.90;99.90;;;;;;1926242;73;25220;-87
2023/09/22 22:31:17;;;;;;;9.20;1.70;;;12.90;99.90;;;;;;1917801;73;25222;-88
2023/09/22 22:34:06;;;;;;;10.40;1.93;;;12.80;99.90;;;;;;1922600;73;25619;-87
2023/09/22 22:36:56;;;;;;;7.37;1.80;;;12.70;99.90;;;;;;1920035;73;25777;-87
2023/09/22 22:39:45;;;;;;;9.93;1.90;;;12.80;99.90;;;;;;1883013;75;25244;-87
2023/09/22 22:58:51;;;;;;;4.03;1.63;;;12.80;99.90;;;;;;1949019;72;27615;-87
2023/09/22 23:04:21;;;;;;;3.63;1.70;;;12.80;99.90;;;;;;1966289;72;27066;-86
2023/09/22 23:07:10;;;;;;;6.47;1.87;;;12.80;99.90;;;;;;1928664;73;25647;-87
2023/09/22 23:10:01;;;;;;;5.83;2.30;;;12.80;99.90;;;;;;1932430;73;25634;-87
2023/09/22 23:12:49;;;;;;;9.57;2.20;;;12.90;99.90;;;;;;1928396;73;25203;-87
2023/09/22 23:18:21;;;;;;;4.50;1.70;;;12.80;99.90;;;;;;1928995;72;27034;-87
2023/09/22 23:21:11;;;;;;;8.13;1.90;;;12.90;99.90;;;;;;1867828;76;25907;-87
2023/09/22 23:24:01;;;;;;;3.63;1.63;;;12.90;99.90;;;;;;1823867;77;25317;-87
2023/09/22 23:26:51;;;;;;;8.53;1.70;;;12.90;99.90;;;;;;1909903;75;25239;-87
2023/09/22 23:29:41;;;;;;;7.73;1.70;;;12.80;99.90;;;;;;1862795;76;25348;-88
2023/09/22 23:32:31;;;;;;;6.47;2.00;;;12.80;99.90;;;;;;1842022;77;25763;-88
2023/09/22 23:35:21;;;;;;;10.43;2.20;;;12.80;99.90;;;;;;1869339;75;25304;-88
2023/09/22 23:38:09;;;;;;;9.57;1.83;;;12.80;99.90;;;;;;1808410;78;25367;-88
2023/09/22 23:40:58;;;;;;;5.07;1.90;;;12.80;99.90;;;;;;1917304;73;25816;-88
2023/09/22 23:43:47;;;;;;;5.17;1.90;;;12.80;99.90;;;;;;1878164;75;25341;-88
2023/09/22 23:46:36;;;;;;;8.53;1.60;;;12.80;99.90;;;;;;1840780;76;25361;-88
2023/09/22 23:49:25;;;;;;;8.07;2.10;;;12.90;99.90;;;;;;1813893;78;25708;-88
2023/09/22 23:52:13;;;;;;;9.10;1.80;;;12.80;99.90;;;;;;1827821;78;25184;-88
2023/09/22 23:55:03;;;;;;;4.50;1.93;;;12.90;99.90;;;;;;1841891;77;25187;-88
